Flight Track Log - Related Links

Times and Time Zones

All times are in EDT time to prevent confusion due to time zone crossing. See the N516QS flight status page for this flight to view local times or setup timezone preferences in your user account.

Time Position Orientation Groundspeed Altitude Reporting Facility
EDT Latitude Longitude Course Direction KTS MPH feet Rate Location/Type
Mon 08:55:08 AM 42.8667 -78.7833 208° Southwest 233 268 4,000  Level Buffalo TRACON
Mon 08:56:00 AM 42.8558 -78.7253 104° East 280 322 7,300 3,214 Climbing Cleveland Center
Mon 08:57:00 AM 42.8600 -78.6006 87° East 316 364 10,000 2,100 Climbing Cleveland Center
Mon 08:59:00 AM 42.9433 -78.3708 64° Northeast 323 372 13,600 1,900 Climbing Cleveland Center
Mon 09:00:00 AM 42.9597 -78.2428 80° East 335 386 15,700 2,100 Climbing Cleveland Center
Mon 09:01:00 AM 42.9733 -78.1003 83° East 354 407 17,800 2,000 Climbing Cleveland Center
Mon 09:02:00 AM 42.9867 -77.9494 83° East 383 441 19,700 2,000 Climbing Cleveland Center
Mon 09:03:00 AM 43.0019 -77.7953 82° East 399 459 21,800 2,050 Climbing Cleveland Center
Mon 09:04:00 AM 43.0147 -77.6386 84° East 409 471 23,800 1,981 Climbing Cleveland Center
Mon 09:06:29 AM 43.0525 -77.2231 83° East 441 507 28,700 1,981 Climbing Boston Center
Mon 09:07:29 AM 43.0661 -77.0450 84° East 457 526 30,700 1,818 Climbing Boston Center
Mon 09:08:41 AM 43.0817 -76.8614 83° East 478 550 32,700 2,000 Climbing Boston Center
Mon 09:09:41 AM 43.1003 -76.6436 83° East 478 550 35,100 2,050 Climbing Boston Center
Mon 09:10:41 AM 43.1144 -76.4794 83° East 478 550 36,800 1,850 Climbing Boston Center
Mon 09:11:41 AM 43.1292 -76.3011 83° East 478 550 38,800 1,750 Climbing Boston Center
Mon 09:12:41 AM 43.1436 -76.1169 84° East 478 550 40,300 1,100 Climbing Boston Center
Mon 09:13:41 AM 43.1553 -75.9383 85° East 478 550 41,000 350 Climbing Boston Center
Mon 09:14:41 AM 43.1672 -75.7539 85° East 478 550 41,000  Level Boston Center
Mon 09:15:41 AM 43.1808 -75.5667 84° East 483 556 41,000  Level Boston Center
Mon 09:16:41 AM 43.1897 -75.3819 86° East 483 556 41,000  Level Boston Center
Mon 09:17:41 AM 43.2036 -75.1661 85° East 492 566 41,000  Level Boston Center
Mon 09:18:41 AM 43.2183 -74.9817 84° East 499 574 41,000  Level Boston Center
Mon 09:19:41 AM 43.2325 -74.8025 84° East 493 567 41,000  Level Boston Center
Mon 09:20:41 AM 43.2444 -74.6178 85° East 488 562 41,000  Level Boston Center
Mon 09:21:41 AM 43.2564 -74.4300 85° East 488 562 41,000  Level Boston Center
Mon 09:22:41 AM 43.2678 -74.2392 85° East 488 562 41,000  Level Boston Center
Mon 09:23:41 AM 43.2789 -74.0486 85° East 499 574 41,000  Level Boston Center
Mon 09:24:42 AM 43.2878 -73.8578 86° East 499 574 41,000  Level Boston Center
Mon 09:25:41 AM 43.3000 -73.6897 84° East 499 574 41,000  Level Boston Center
Mon 09:26:41 AM 43.3083 -73.4986 87° East 494 568 41,000  Level Boston Center
Mon 09:27:41 AM 43.3244 -73.3106 83° East 499 574 41,000  Level Boston Center
Mon 09:28:41 AM 43.3342 -73.1167 86° East 499 574 41,000  Level Boston Center
Mon 09:29:41 AM 43.3436 -72.9083 86° East 499 574 41,000  Level Boston Center
Mon 09:30:41 AM 43.3525 -72.7169 86° East 499 574 41,000  Level Boston Center
Mon 09:31:42 AM 43.3592 -72.5228 87° East 499 574 41,000  Level Boston Center
Mon 09:32:41 AM 43.3694 -72.3317 86° East 499 574 41,000  Level Boston Center
Mon 09:33:41 AM 43.3753 -72.1431 87° East 499 574 41,000  Level Boston Center
Mon 09:34:41 AM 43.3831 -71.9486 87° East 499 574 41,000 -600 Level Boston Center
Mon 09:35:41 AM 43.3903 -71.7600 87° East 499 574 39,800 -1,500 Descending Boston Center
Mon 09:36:41 AM 43.3953 -71.5686 88° East 499 574 38,000 -1,800 Descending Boston Center
Mon 09:37:41 AM 43.4042 -71.3828 86° East 488 562 36,200 -1,800 Descending Boston Center
Mon 09:38:41 AM 43.4086 -71.1939 88° East 493 567 34,400 -1,900 Descending Boston Center
Mon 09:39:41 AM 43.4189 -71.0053 86° East 498 573 32,400 -2,000 Descending Boston Center
Mon 09:40:41 AM 43.4225 -70.8136 88° East 498 573 30,400 -2,050 Descending Boston Center
Mon 09:41:41 AM 43.3719 -70.6350 111° Southeast 484 557 28,300 -2,050 Descending Boston Center
Mon 09:42:41 AM 43.2619 -70.5356 147° Southeast 454 522 26,300 -2,000 Descending Boston Center
Mon 09:43:41 AM 43.1425 -70.4908 165° South 425 489 24,300 -1,150 Descending Boston Center
Mon 09:44:41 AM 43.0269 -70.4461 164° South 425 489 24,000 -950 Descending Boston Center
Mon 09:45:41 AM 42.9094 -70.3992 164° South 435 501 22,400 -2,100 Descending Boston Center
Mon 09:46:41 AM 42.8003 -70.3544 163° South 429 494 19,800 -2,550 Descending Boston Center
Mon 09:47:41 AM 42.6972 -70.3128 163° South 410 472 17,300 -2,479 Descending Boston Center
Mon 09:48:42 AM 42.5964 -70.2711 163° South 392 451 14,800 -2,500 Descending Boston Center
Mon 09:49:41 AM 42.4978 -70.2322 164° South 381 438 12,300 -1,916 Descending Boston Center
Mon 09:50:41 AM 42.4011 -70.1936 164° South 374 430 11,000 -591 Descending Boston Center
Mon 09:51:53 AM 42.3064 -70.1547 163° South 369 425 11,000  Level Boston Center
Mon 09:52:53 AM 42.2056 -70.1164 164° South 339 390 11,000  Level Boston Center
Mon 09:53:53 AM 42.1258 -70.0831 163° South 323 372 11,000  Level Boston Center
Mon 09:54:53 AM 42.0628 -70.0547 162° South 312 359 11,000 -650 Level Boston Center
Mon 09:55:53 AM 41.9667 -70.0556 180° South 478 550 9,700 -2,100 Descending Boston Center
Mon 09:56:53 AM 41.9028 -70.0831 198° South 382 440 6,800 -2,550 Descending Boston Center
Mon 09:57:53 AM 41.8367 -70.1078 196° South 291 335 4,600 -1,955 Descending Boston Center
Mon 09:59:05 AM 41.7683 -70.1353 197° South 244 281 2,500 -1,273 Descending Boston Center
Mon 10:00:05 AM 41.7336 -70.1756 221° Southwest 201 231 1,800 -750 Descending Boston Center
Mon 10:01:05 AM 41.7094 -70.2181 233° Southwest 165 190 1,000 -700 Descending Boston Center
Mon 10:02:05 AM 41.6872 -70.2494 227° Southwest 139 160 400 5,000 Descending Boston Center
Mon 10:03:05 AM 41.6692 -70.2781 230° Southwest 129 148 11,000 5,300 Climbing Boston Center
Mon 10:04:05 AM 41.6467 -70.3119 228° Southwest 112 129 11,000  Level Boston Center
Mon 10:05:05 AM 41.6264 -70.3406 227° Southwest 112 129 11,000  Level Boston Center
Mon 10:06:05 AM 41.6061 -70.3689 226° Southwest 112 129 11,000  Level Boston Center
Mon 10:07:05 AM 41.5858 -70.3972 226° Southwest 112 129 11,000  Level Boston Center
Mon 10:08:05 AM 41.5778 -70.4086 227° Southwest 112 129 11,000  Level Boston Center
Mon 10:11:00 AM 41.6667 -70.2667 45° Northeast  Level FlightAware Approximate
Mon 10:18:00 AM 41.6693 -70.2804 45° Northeast  Level Estimated
Mon 10:19:00 AM 41.6693 -70.2804 45° Northeast  Level Estimated

Login

Don't have an account? Register now (free) for customized features, flight alerts, and more!